マカオ国際空港の過去48時間の天気

マカオ国際空港 (Taipa)

現在時刻: 5/26 10:17 CST (5/26 02:17 UTC) 以下の時間は現地時間です。

過去48時間のMETAR気象情報
時間 風向 風速(m/s) 視程 気温(℃) 湿度(%) 気圧(hPa) 天気現象
26 10:00 2 10km以上 27 94 1005
26 09:30 南東 4 10km以上 26 100 1005 弱いしゅう雨
26 09:00 南東 3 8000m 26 94 1005 弱いしゅう雨
26 08:30 南東 3 10km以上 26 94 1005 弱いしゅう雨
26 08:00 南東 3 10km以上 26 94 1005
26 07:30 東南東 4 7000m 26 94 1005 弱いしゅう雨
26 07:00 不定 1 9000m 26 94 1005 弱いしゅう雨
26 06:30 東南東 2 6000m 26 94 1005
26 06:00 不定 1 6000m 25 100 1004
26 05:30 東南東 2 8000m 25 100 1004
26 05:00 東南東 3 8000m 25 100 1004
26 04:30 2 8000m 25 100 1004
26 04:00 不定 1 6000m 25 100 1004
26 03:30 2 7000m 25 100 1004 弱いしゅう雨
26 03:00 2 6000m 25 100 1004 弱いしゅう雨
26 02:30 不定 1 7000m 25 100 1004
26 02:00 不定 1 7000m 25 100 1005
26 01:30 不定 1 9000m 25 100 1005
26 01:00 2 10km以上 25 100 1006
26 00:30 不定 1 10km以上 25 100 1006
26 00:00 2 9000m 25 100 1006
25 23:30 3 10km以上 25 100 1007
25 23:00 3 10km以上 25 100 1007
25 22:30 東南東 4 10km以上 25 100 1007
25 22:00 4 10km以上 25 100 1007
25 21:30 3 10km以上 25 94 1007
25 21:00 東南東 4 10km以上 25 94 1007
25 20:30 東南東 4 10km以上 25 94 1006
25 20:00 4 10km以上 25 94 1006
25 19:30 東南東 4 10km以上 25 94 1006
25 19:00 東南東 5 10km以上 25 94 1005
25 18:30 東南東 5 10km以上 25 94 1005
25 18:00 東南東 5 10km以上 26 89 1005
25 17:30 東南東 4 10km以上 26 89 1005
25 17:00 東南東 4 10km以上 26 89 1005 弱いしゅう雨
25 16:30 4 10km以上 26 89 1005 弱いしゅう雨
25 16:00 4 10km以上 26 89 1005 弱いしゅう雨
25 15:30 4 10km以上 26 89 1005 弱いしゅう雨
25 15:00 東南東 4 10km以上 26 89 1006 弱いしゅう雨
25 14:30 3 10km以上 26 94 1006
25 14:00 3 10km以上 26 89 1006
25 13:30 3 10km以上 26 89 1007
25 13:00 3 10km以上 26 94 1007
25 12:30 4 7000m 25 100 1008 弱いしゅう雨
25 12:00 3 9000m 25 94 1008
25 11:30 3 8000m 25 94 1009
25 11:00 東北東 3 6000m 25 94 1009 弱いしゅう雨
25 10:30 北東 3 10km以上 26 89 1009
25 10:00 北東 3 10km以上 26 89 1009
25 09:30 北東 3 10km以上 25 94 1009
25 09:00 東北東 3 10km以上 25 94 1009
25 08:30 4 10km以上 25 94 1009
25 08:00 5 10km以上 25 94 1009
25 07:30 東北東 5 4800m 25 94 1008 弱い雨
25 07:00 5 7000m 25 94 1008 弱い雨
25 06:30 5 10km以上 25 94 1008
25 06:00 4 10km以上 25 94 1008
25 05:30 5 10km以上 25 94 1008
25 05:00 5 10km以上 25 94 1008
25 04:30 5 10km以上 25 94 1007
25 04:00 6 10km以上 25 89 1007
25 03:30 6 10km以上 25 94 1008
25 03:00 6 10km以上 25 94 1008
25 02:30 6 10km以上 25 94 1007
25 02:00 6 10km以上 25 94 1008
25 01:30 7 10km以上 25 94 1007
25 01:00 6 10km以上 25 94 1008
25 00:30 6 10km以上 25 94 1009
25 00:00 5 10km以上 25 94 1009
24 23:30 4 10km以上 25 94 1009
24 23:00 5 10km以上 25 94 1010
24 22:30 4 10km以上 25 94 1010
24 22:00 3 10km以上 25 94 1010
24 21:30 東南東 2 10km以上 25 94 1010
24 21:00 3 10km以上 25 94 1009
24 20:30 東南東 3 10km以上 25 94 1009
24 20:00 東南東 3 10km以上 25 94 1009
24 19:30 東南東 3 10km以上 25 94 1008
24 19:00 静穏 0 10km以上 25 94 1008
24 18:30 不定 1 10km以上 25 94 1008
24 18:00 2 10km以上 25 94 1007
24 17:30 北北西 3 10km以上 25 94 1007
24 17:00 北北西 2 10km以上 25 94 1007
24 16:30 2 10km以上 25 94 1007
24 16:00 北東 3 10km以上 25 94 1008
24 15:30 東北東 5 10km以上 25 94 1008
24 15:00 3 5000m 25 94 1008 弱いしゅう雨
24 14:30 東北東 3 3000m 25 94 1008 弱いしゅう雨
24 14:00 2 3700m 26 89 1008 弱いしゅう雨
24 13:34 東北東 4 4000m 25 94 1008 弱いしゅう雨
24 13:00 6 10km以上 26 89 1008 弱いしゅう雨
24 12:30 4 10km以上 26 89 1009
24 12:00 5 10km以上 26 89 1009 弱いしゅう雨
24 11:30 東北東 5 10km以上 26 89 1009
24 11:00 5 10km以上 26 89 1009
24 10:30 東北東 5 10km以上 26 89 1009
VMMC 260200Z 10004KT 060V140 9999 FEW004 SCT018 27/26 Q1005 NOSIG
VMMC 260130Z 13007KT 9999 -SHRA FEW004 SCT015 26/26 Q1005 NOSIG
VMMC 260100Z 13005KT 100V160 8000 -SHRA FEW004 SCT015 26/25 Q1005 NOSIG
VMMC 260030Z 13005KT 110V170 9999 -SHRA FEW004 SCT015 26/25 Q1005 NOSIG
VMMC 260000Z 14006KT 9999 FEW003 SCT015 26/25 Q1005 NOSIG
VMMC 252330Z 12007KT 7000 -SHRA FEW004 SCT018 26/25 Q1005 NOSIG
VMMC 252300Z VRB02KT 9000 -SHRA FEW006 SCT018 26/25 Q1005 NOSIG
VMMC 252230Z 12003KT 090V160 6000 FEW004 SCT015 26/25 Q1005 NOSIG
VMMC 252200Z VRB02KT 6000 FEW004 SCT018 25/25 Q1004 TEMPO 4500 SHRA
VMMC 252130Z 12004KT 8000 FEW004 SCT018 25/25 Q1004 NOSIG
VMMC 252100Z 12005KT 8000 FEW004 SCT015 25/25 Q1004 NOSIG
VMMC 252030Z 10003KT 060V150 8000 FEW004 SCT015 25/25 Q1004 NOSIG
VMMC 252000Z VRB02KT 6000 FEW005 SCT015 25/25 Q1004 NOSIG
VMMC 251930Z 09003KT 070V130 7000 -SHRA FEW004 SCT015 25/25 Q1004 NOSIG
VMMC 251900Z 09004KT 060V130 6000 -SHRA FEW004 SCT015 25/25 Q1004 NOSIG
VMMC 251830Z VRB02KT 7000 FEW004 SCT015 25/25 Q1004 NOSIG
VMMC 251800Z VRB02KT 7000 FEW005 SCT015 25/25 Q1005 TEMPO 4500 SHRA
VMMC 251730Z VRB02KT 9000 FEW005 SCT015 25/25 Q1005 NOSIG
VMMC 251700Z 09003KT 040V120 9999 FEW005 SCT015 25/25 Q1006 NOSIG
VMMC 251630Z VRB01KT 9999 FEW005 SCT015 25/25 Q1006 NOSIG
VMMC 251600Z 10004KT 070V150 9000 FEW005 SCT015 25/25 Q1006 NOSIG
VMMC 251530Z 10005KT 9999 FEW005 SCT012 25/25 Q1007 NOSIG
VMMC 251500Z 10005KT 080V160 9999 FEW005 SCT012 25/25 Q1007 NOSIG
VMMC 251430Z 11007KT 9999 FEW005 25/25 Q1007 NOSIG
VMMC 251400Z 10007KT 070V140 9999 FEW005 SCT015 25/25 Q1007 NOSIG
VMMC 251330Z 10005KT 9999 FEW006 SCT015 25/24 Q1007 NOSIG
VMMC 251300Z 12008KT 9999 FEW006 SCT015 25/24 Q1007 NOSIG
VMMC 251230Z 11007KT 9999 FEW007 SCT025 25/24 Q1006 NOSIG
VMMC 251200Z 10007KT 9999 FEW007 SCT025 25/24 Q1006 NOSIG
VMMC 251130Z 12008KT 9999 FEW006 SCT020 25/24 Q1006 NOSIG
VMMC 251100Z 11009KT 9999 FEW006 SCT018 25/24 Q1005 NOSIG
VMMC 251030Z 12010KT 9999 FEW006 SCT018 25/24 Q1005 NOSIG
VMMC 251000Z 12010KT 9999 FEW006 SCT020 26/24 Q1005 NOSIG
VMMC 250930Z 12008KT 9999 FEW006 SCT020 26/24 Q1005 NOSIG
VMMC 250900Z 11008KT 9999 -SHRA FEW006 SCT020 26/24 Q1005 NOSIG
VMMC 250830Z 10008KT 9999 -SHRA FEW006 SCT020 26/24 Q1005 NOSIG
VMMC 250800Z 10008KT 9999 -SHRA FEW006 SCT020 26/24 Q1005 NOSIG
VMMC 250730Z 10007KT 070V140 9999 -SHRA FEW006 SCT020 26/24 Q1005 NOSIG
VMMC 250700Z 11007KT 9999 -SHRA FEW006 SCT020 26/24 Q1006 NOSIG
VMMC 250630Z 10006KT 9999 FEW008 SCT020 26/25 Q1006 NOSIG
VMMC 250600Z 09005KT 050V110 9999 FEW006 SCT020 26/24 Q1006 NOSIG
VMMC 250530Z 09006KT 070V150 9999 FEW006 SCT020 26/24 Q1007 NOSIG
VMMC 250500Z VRB06KT 9999 FEW006 SCT020 26/25 Q1007 NOSIG
VMMC 250430Z 08007KT 030V110 7000 -SHRA FEW004 SCT020 25/25 Q1008 TEMPO 3500 SHRA
VMMC 250400Z 09006KT 060V130 9000 FEW004 SCT012 25/24 Q1008 TEMPO 3500 SHRA
VMMC 250330Z 08006KT 060V130 8000 FEW004 SCT020 25/24 Q1009 NOSIG
VMMC 250300Z 06005KT 360V080 6000 -SHRA FEW005 SCT020 25/24 Q1009 TEMPO 3500 SHRA
VMMC 250230Z 05006KT 360V080 9999 FEW007 SCT025 26/24 Q1009 NOSIG
VMMC 250200Z 04005KT 9999 FEW007 SCT025 26/24 Q1009 NOSIG
VMMC 250130Z 04005KT 360V070 9999 FEW006 SCT025 25/24 Q1009 NOSIG
VMMC 250100Z 06006KT 030V100 9999 FEW008 SCT025 25/24 Q1009 NOSIG
VMMC 250030Z 08007KT 040V110 9999 FEW008 SCT025 25/24 Q1009 NOSIG
VMMC 250000Z 08009KT 030V100 9999 FEW006 SCT020 25/24 Q1009 NOSIG
VMMC 242330Z 07010KT 4800 -RA FEW005 SCT018 25/24 Q1008 NOSIG
VMMC 242300Z 08009KT 060V150 7000 -RA FEW005 SCT020 25/24 Q1008 NOSIG
VMMC 242230Z 08009KT 030V180 9999 FEW006 SCT020 25/24 Q1008 TEMPO 3500 SHRA
VMMC 242200Z 09008KT 010V130 9999 FEW006 SCT020 25/24 Q1008 NOSIG
VMMC 242130Z 09009KT 070V130 9999 FEW006 SCT020 25/24 Q1008 NOSIG
VMMC 242100Z 09009KT 050V120 9999 FEW006 SCT020 25/24 Q1008 NOSIG
VMMC 242030Z 09010KT 050V120 9999 FEW006 SCT020 25/24 Q1007 NOSIG
VMMC 242000Z 09012KT 9999 FEW008 SCT020 25/23 Q1007 NOSIG
VMMC 241930Z 09011KT 060V130 9999 FEW008 SCT020 25/24 Q1008 NOSIG
VMMC 241900Z 09011KT 070V130 9999 FEW008 SCT020 25/24 Q1008 NOSIG
VMMC 241830Z 09012KT 070V130 9999 FEW008 SCT020 25/24 Q1007 NOSIG
VMMC 241800Z 09012KT 9999 FEW006 SCT020 25/24 Q1008 NOSIG
VMMC 241730Z 09013KT 040V110 9999 FEW006 SCT020 25/24 Q1007 NOSIG
VMMC 241700Z 09012KT 9999 FEW006 SCT020 25/24 Q1008 NOSIG
VMMC 241630Z 09011KT 9999 FEW006 SCT020 25/24 Q1009 NOSIG
VMMC 241600Z 09009KT 060V140 9999 FEW006 SCT020 25/24 Q1009 NOSIG
VMMC 241530Z 09008KT 050V150 9999 FEW006 SCT025 25/24 Q1009 NOSIG
VMMC 241500Z 10010KT 050V130 9999 FEW008 SCT028 25/24 Q1010 NOSIG
VMMC 241430Z 10008KT 080V140 9999 FEW008 SCT030 25/24 Q1010 NOSIG
VMMC 241400Z 09005KT 060V130 9999 FEW015 SCT028 25/24 Q1010 NOSIG
VMMC 241330Z 11004KT 090V150 9999 FEW015 SCT028 25/24 Q1010 NOSIG
VMMC 241300Z 10005KT 9999 FEW015 SCT028 25/24 Q1009 NOSIG
VMMC 241230Z 11006KT 9999 FEW015 SCT025 25/24 Q1009 NOSIG
VMMC 241200Z 11006KT 9999 FEW015 SCT025 25/24 Q1009 NOSIG
VMMC 241130Z 12006KT 080V160 9999 FEW012 SCT025 25/24 Q1008 NOSIG
VMMC 241100Z 00000KT 9999 FEW012 SCT025 25/24 Q1008 NOSIG
VMMC 241030Z VRB02KT 9999 FEW012 SCT025 25/24 Q1008 NOSIG
VMMC 241000Z 36003KT 9999 FEW008 SCT025 25/24 Q1007 NOSIG
VMMC 240930Z 34006KT 9999 FEW006 SCT015 25/24 Q1007 NOSIG
VMMC 240900Z 34004KT 9999 FEW005 SCT015 25/24 Q1007 NOSIG
VMMC 240830Z 01004KT 9999 FEW006 SCT015 25/24 Q1007 NOSIG
VMMC 240800Z 04006KT 9999 FEW003 SCT015 25/24 Q1008 NOSIG
VMMC 240730Z 07010KT 9999 FEW008 SCT018 25/24 Q1008 NOSIG
VMMC 240700Z 09006KT 040V170 5000 -SHRA FEW008 SCT018 25/24 Q1008 NOSIG
VMMC 240630Z 07006KT 030V160 3000 -SHRA FEW006 SCT015 25/24 Q1008 TEMPO 2400 SHRA
VMMC 240600Z 08004KT 040V120 3700 -SHRA FEW010 SCT018 26/24 Q1008 NOSIG
VMMC 240534Z 07007KT 340V090 4000 -SHRA FEW010 SCT018 25/24 Q1008 NOSIG
VMMC 240500Z 08011KT 9999 -SHRA FEW010 SCT020 26/24 Q1008 NOSIG
VMMC 240430Z 08007KT 050V110 9999 FEW010 SCT020 26/24 Q1009 NOSIG
VMMC 240400Z 08009KT 050V110 9999 -SHRA FEW008 SCT020 26/24 Q1009 NOSIG
VMMC 240330Z 07010KT 9999 FEW008 SCT020 26/24 Q1009 NOSIG
VMMC 240300Z VRB09KT 9999 FEW008 SCT020 26/24 Q1009 NOSIG
VMMC 240230Z 07010KT 9999 FEW008 SCT020 26/24 Q1009 NOSIG